sensor_id;sensor_type;location;lat;lon;timestamp;pressure;altitude;pressure_sealevel;temperature;humidity
39309;BME280;26019;47.510;19.122;2024-01-11T00:06:21;101631.66;;;-4.83;100.00
39309;BME280;26019;47.510;19.122;2024-01-11T00:16:23;101631.75;;;-4.81;100.00
39309;BME280;26019;47.510;19.122;2024-01-11T00:26:28;101621.31;;;-4.86;100.00
39309;BME280;26019;47.510;19.122;2024-01-11T00:36:31;101620.03;;;-4.81;100.00
39309;BME280;26019;47.510;19.122;2024-01-11T00:57:00;101601.84;;;-4.99;100.00
39309;BME280;26019;47.510;19.122;2024-01-11T01:07:02;101586.09;;;-4.84;100.00
39309;BME280;26019;47.510;19.122;2024-01-11T01:17:04;101578.59;;;-4.95;100.00
39309;BME280;26019;47.510;19.122;2024-01-11T01:27:06;101575.00;;;-5.08;100.00
39309;BME280;26019;47.510;19.122;2024-01-11T01:37:18;101560.19;;;-5.16;100.00
39309;BME280;26019;47.510;19.122;2024-01-11T01:47:21;101553.19;;;-5.30;100.00
39309;BME280;26019;47.510;19.122;2024-01-11T01:57:24;101532.28;;;-5.40;100.00
39309;BME280;26019;47.510;19.122;2024-01-11T02:07:26;101523.50;;;-5.45;100.00
39309;BME280;26019;47.510;19.122;2024-01-11T02:17:29;101508.84;;;-5.38;100.00
39309;BME280;26019;47.510;19.122;2024-01-11T02:27:47;101499.97;;;-5.56;100.00
39309;BME280;26019;47.510;19.122;2024-01-11T02:37:50;101492.16;;;-5.48;100.00
39309;BME280;26019;47.510;19.122;2024-01-11T02:47:54;101473.16;;;-5.55;100.00
39309;BME280;26019;47.510;19.122;2024-01-11T02:57:57;101448.84;;;-5.55;100.00
39309;BME280;26019;47.510;19.122;2024-01-11T03:07:59;101451.97;;;-5.79;100.00
39309;BME280;26019;47.510;19.122;2024-01-11T03:18:01;101439.63;;;-5.76;100.00
39309;BME280;26019;47.510;19.122;2024-01-11T03:28:03;101422.97;;;-5.96;100.00
39309;BME280;26019;47.510;19.122;2024-01-11T03:38:08;101407.19;;;-5.94;100.00
39309;BME280;26019;47.510;19.122;2024-01-11T03:48:10;101403.53;;;-6.09;100.00
39309;BME280;26019;47.510;19.122;2024-01-11T03:58:12;101391.44;;;-6.03;100.00
39309;BME280;26019;47.510;19.122;2024-01-11T04:08:14;101394.00;;;-5.91;100.00
39309;BME280;26019;47.510;19.122;2024-01-11T04:18:15;101399.03;;;-5.91;100.00
39309;BME280;26019;47.510;19.122;2024-01-11T04:28:23;101396.63;;;-5.90;100.00
39309;BME280;26019;47.510;19.122;2024-01-11T04:38:25;101392.00;;;-5.95;100.00
39309;BME280;26019;47.510;19.122;2024-01-11T04:48:27;101399.75;;;-6.04;100.00
39309;BME280;26019;47.510;19.122;2024-01-11T04:58:29;101395.22;;;-6.08;100.00
39309;BME280;26019;47.510;19.122;2024-01-11T05:08:31;101378.63;;;-6.17;100.00
39309;BME280;26019;47.510;19.122;2024-01-11T05:18:35;101389.22;;;-6.21;100.00
39309;BME280;26019;47.510;19.122;2024-01-11T05:28:37;101390.69;;;-6.12;100.00
39309;BME280;26019;47.510;19.122;2024-01-11T05:38:40;101399.03;;;-6.24;100.00
39309;BME280;26019;47.510;19.122;2024-01-11T05:48:43;101385.69;;;-6.23;100.00
39309;BME280;26019;47.510;19.122;2024-01-11T05:58:45;101390.34;;;-6.17;100.00
39309;BME280;26019;47.510;19.122;2024-01-11T06:08:49;101394.72;;;-6.15;100.00
39309;BME280;26019;47.510;19.122;2024-01-11T06:18:53;101377.16;;;-6.25;100.00
39309;BME280;26019;47.510;19.122;2024-01-11T06:28:56;101370.59;;;-6.23;100.00
39309;BME280;26019;47.510;19.122;2024-01-11T06:39:01;101377.34;;;-6.01;100.00
39309;BME280;26019;47.510;19.122;2024-01-11T06:49:05;101367.41;;;-5.88;100.00
39309;BME280;26019;47.510;19.122;2024-01-11T06:59:08;101372.91;;;-5.81;100.00
39309;BME280;26019;47.510;19.122;2024-01-11T07:09:09;101363.56;;;-5.50;100.00
39309;BME280;26019;47.510;19.122;2024-01-11T07:19:12;101360.38;;;-5.13;100.00
39309;BME280;26019;47.510;19.122;2024-01-11T07:29:14;101372.84;;;-4.81;100.00
39309;BME280;26019;47.510;19.122;2024-01-11T07:39:16;101353.22;;;-4.37;100.00
39309;BME280;26019;47.510;19.122;2024-01-11T07:49:25;101354.78;;;-3.53;100.00
39309;BME280;26019;47.510;19.122;2024-01-11T07:59:33;101350.53;;;-1.24;100.00
39309;BME280;26019;47.510;19.122;2024-01-11T08:09:37;101330.59;;;1.25;92.11
39309;BME280;26019;47.510;19.122;2024-01-11T08:19:46;101312.47;;;0.66;87.70
39309;BME280;26019;47.510;19.122;2024-01-11T08:29:48;101307.75;;;2.20;67.65
39309;BME280;26019;47.510;19.122;2024-01-11T08:39:50;101298.66;;;4.45;53.89
39309;BME280;26019;47.510;19.122;2024-01-11T08:49:54;101288.75;;;4.30;50.38
39309;BME280;26019;47.510;19.122;2024-01-11T09:00:04;101298.31;;;5.12;47.81
39309;BME280;26019;47.510;19.122;2024-01-11T09:10:08;101293.19;;;7.31;41.42
39309;BME280;26019;47.510;19.122;2024-01-11T09:20:10;101270.69;;;8.99;33.10
39309;BME280;26019;47.510;19.122;2024-01-11T09:30:16;101251.31;;;9.89;32.73
39309;BME280;26019;47.510;19.122;2024-01-11T09:40:18;101203.47;;;11.44;29.16
39309;BME280;26019;47.510;19.122;2024-01-11T09:50:21;101179.53;;;12.79;27.33
39309;BME280;26019;47.510;19.122;2024-01-11T10:00:25;101173.50;;;12.15;26.54
39309;BME280;26019;47.510;19.122;2024-01-11T10:10:27;101138.50;;;16.18;22.14
39309;BME280;26019;47.510;19.122;2024-01-11T10:20:30;101123.13;;;16.55;21.77
39309;BME280;26019;47.510;19.122;2024-01-11T10:30:34;101130.72;;;13.77;23.85
39309;BME280;26019;47.510;19.122;2024-01-11T10:40:37;101105.84;;;13.34;23.38
39309;BME280;26019;47.510;19.122;2024-01-11T10:50:42;101096.81;;;14.91;22.99
39309;BME280;26019;47.510;19.122;2024-01-11T11:00:44;101068.03;;;11.52;25.90
39309;BME280;26019;47.510;19.122;2024-01-11T11:10:48;101056.84;;;11.71;26.37
39309;BME280;26019;47.510;19.122;2024-01-11T11:20:51;101061.13;;;15.63;23.46
39309;BME280;26019;47.510;19.122;2024-01-11T11:30:53;101043.28;;;16.45;23.23
39309;BME280;26019;47.510;19.122;2024-01-11T11:41:00;101021.06;;;13.25;26.12
39309;BME280;26019;47.510;19.122;2024-01-11T11:51:20;101033.91;;;13.55;26.93
39309;BME280;26019;47.510;19.122;2024-01-11T12:01:24;101009.94;;;10.63;30.09
39309;BME280;26019;47.510;19.122;2024-01-11T12:11:27;100987.66;;;12.65;27.29
39309;BME280;26019;47.510;19.122;2024-01-11T12:21:29;100983.09;;;13.10;26.89
39309;BME280;26019;47.510;19.122;2024-01-11T12:31:32;100975.72;;;11.71;28.30
39309;BME280;26019;47.510;19.122;2024-01-11T12:41:35;100962.72;;;11.13;29.72
39309;BME280;26019;47.510;19.122;2024-01-11T12:51:37;100979.72;;;9.32;32.35
39309;BME280;26019;47.510;19.122;2024-01-11T13:01:41;100967.53;;;5.02;39.29
39309;BME280;26019;47.510;19.122;2024-01-11T13:11:43;100946.13;;;4.70;40.42
39309;BME280;26019;47.510;19.122;2024-01-11T13:21:45;100922.31;;;6.94;35.22
39309;BME280;26019;47.510;19.122;2024-01-11T13:31:48;100895.50;;;11.23;29.76
39309;BME280;26019;47.510;19.122;2024-01-11T13:41:50;100912.03;;;6.50;34.64
39309;BME280;26019;47.510;19.122;2024-01-11T13:51:51;100880.94;;;5.22;37.64
39309;BME280;26019;47.510;19.122;2024-01-11T14:02:03;100856.69;;;4.44;38.84
39309;BME280;26019;47.510;19.122;2024-01-11T14:12:06;100832.44;;;3.17;38.99
39309;BME280;26019;47.510;19.122;2024-01-11T14:22:10;100813.69;;;2.90;38.74
39309;BME280;26019;47.510;19.122;2024-01-11T14:32:24;100815.13;;;3.08;38.70
39309;BME280;26019;47.510;19.122;2024-01-11T14:42:39;100816.91;;;2.59;40.73
39309;BME280;26019;47.510;19.122;2024-01-11T14:52:41;100807.88;;;2.44;42.72
39309;BME280;26019;47.510;19.122;2024-01-11T15:02:43;100792.47;;;2.41;42.95
39309;BME280;26019;47.510;19.122;2024-01-11T15:12:47;100771.81;;;2.09;44.06
39309;BME280;26019;47.510;19.122;2024-01-11T15:22:49;100786.44;;;1.68;45.42
39309;BME280;26019;47.510;19.122;2024-01-11T15:32:51;100775.19;;;1.40;47.76
39309;BME280;26019;47.510;19.122;2024-01-11T15:42:53;100765.41;;;1.07;48.26
39309;BME280;26019;47.510;19.122;2024-01-11T15:53:02;100764.59;;;1.08;46.99
39309;BME280;26019;47.510;19.122;2024-01-11T16:03:04;100785.72;;;1.05;46.84
39309;BME280;26019;47.510;19.122;2024-01-11T16:13:08;100785.41;;;0.76;47.99
39309;BME280;26019;47.510;19.122;2024-01-11T16:23:10;100774.13;;;0.50;52.09
39309;BME280;26019;47.510;19.122;2024-01-11T16:33:11;100758.56;;;0.42;56.93
39309;BME280;26019;47.510;19.122;2024-01-11T16:43:14;100757.44;;;0.16;69.70
39309;BME280;26019;47.510;19.122;2024-01-11T16:53:18;100730.69;;;-0.16;79.47
39309;BME280;26019;47.510;19.122;2024-01-11T17:03:19;100724.81;;;-0.14;80.35
39309;BME280;26019;47.510;19.122;2024-01-11T17:13:25;100718.41;;;-0.44;89.13
39309;BME280;26019;47.510;19.122;2024-01-11T17:23:29;100709.13;;;-0.43;85.63
39309;BME280;26019;47.510;19.122;2024-01-11T17:33:31;100692.84;;;-0.67;89.18
39309;BME280;26019;47.510;19.122;2024-01-11T17:43:35;100672.59;;;-0.65;83.80
39309;BME280;26019;47.510;19.122;2024-01-11T17:53:39;100659.00;;;-0.48;81.62
39309;BME280;26019;47.510;19.122;2024-01-11T18:03:41;100655.91;;;-0.60;81.16
39309;BME280;26019;47.510;19.122;2024-01-11T18:13:43;100643.34;;;-0.57;79.08
39309;BME280;26019;47.510;19.122;2024-01-11T18:23:47;100630.63;;;-0.58;79.11
39309;BME280;26019;47.510;19.122;2024-01-11T18:33:50;100619.78;;;-0.54;77.89
39309;BME280;26019;47.510;19.122;2024-01-11T18:43:54;100635.78;;;-0.37;77.24
39309;BME280;26019;47.510;19.122;2024-01-11T18:53:58;100611.28;;;-0.55;79.11
39309;BME280;26019;47.510;19.122;2024-01-11T19:04:00;100615.16;;;-0.63;82.23
39309;BME280;26019;47.510;19.122;2024-01-11T19:14:04;100608.75;;;-0.74;85.33
39309;BME280;26019;47.510;19.122;2024-01-11T19:24:13;100609.03;;;-0.68;85.62
39309;BME280;26019;47.510;19.122;2024-01-11T19:34:17;100602.34;;;-0.66;86.08
39309;BME280;26019;47.510;19.122;2024-01-11T19:44:20;100612.75;;;-0.60;85.58
39309;BME280;26019;47.510;19.122;2024-01-11T19:54:28;100619.72;;;-0.56;83.60
39309;BME280;26019;47.510;19.122;2024-01-11T20:04:31;100623.03;;;-0.57;82.23
39309;BME280;26019;47.510;19.122;2024-01-11T20:14:34;100625.34;;;-0.43;81.35
39309;BME280;26019;47.510;19.122;2024-01-11T20:24:44;100637.88;;;-0.27;79.16
39309;BME280;26019;47.510;19.122;2024-01-11T20:34:47;100624.78;;;-0.17;78.02
39309;BME280;26019;47.510;19.122;2024-01-11T20:44:52;100638.34;;;-0.16;77.58
39309;BME280;26019;47.510;19.122;2024-01-11T20:54:54;100642.50;;;-0.18;77.95
39309;BME280;26019;47.510;19.122;2024-01-11T21:04:58;100667.56;;;-0.06;78.34
39309;BME280;26019;47.510;19.122;2024-01-11T21:15:00;100676.31;;;0.01;77.47
39309;BME280;26019;47.510;19.122;2024-01-11T21:25:03;100664.06;;;0.11;79.33
39309;BME280;26019;47.510;19.122;2024-01-11T21:35:07;100667.41;;;0.10;81.78
39309;BME280;26019;47.510;19.122;2024-01-11T21:45:11;100664.16;;;-0.07;82.13
39309;BME280;26019;47.510;19.122;2024-01-11T21:55:16;100670.25;;;-0.23;84.88
39309;BME280;26019;47.510;19.122;2024-01-11T22:05:18;100691.03;;;-0.12;84.77
39309;BME280;26019;47.510;19.122;2024-01-11T22:15:23;100692.97;;;-0.26;85.49
39309;BME280;26019;47.510;19.122;2024-01-11T22:25:25;100686.56;;;-0.37;90.86
39309;BME280;26019;47.510;19.122;2024-01-11T22:35:27;100704.72;;;-0.48;91.09
39309;BME280;26019;47.510;19.122;2024-01-11T22:45:29;100717.63;;;-0.61;92.17
39309;BME280;26019;47.510;19.122;2024-01-11T22:55:31;100720.28;;;-0.78;94.32
39309;BME280;26019;47.510;19.122;2024-01-11T23:05:36;100745.06;;;-0.90;97.22
39309;BME280;26019;47.510;19.122;2024-01-11T23:15:41;100771.75;;;-0.98;99.19
39309;BME280;26019;47.510;19.122;2024-01-11T23:25:43;100771.31;;;-1.08;100.00
39309;BME280;26019;47.510;19.122;2024-01-11T23:35:44;100788.13;;;-1.10;100.00
39309;BME280;26019;47.510;19.122;2024-01-11T23:45:51;100785.78;;;-1.23;100.00
39309;BME280;26019;47.510;19.122;2024-01-11T23:55:53;100788.00;;;-1.29;100.00
